createdAt,value
2023-05-13T00:01:49.744Z,7.49
2023-05-13T00:04:17.542Z,7.47
2023-05-13T00:06:45.427Z,7.47
2023-05-13T00:09:12.956Z,7.46
2023-05-13T00:11:41.063Z,7.44
2023-05-13T00:14:10.523Z,7.44
2023-05-13T00:16:38.196Z,7.43
2023-05-13T00:19:05.853Z,7.41
2023-05-13T00:21:33.604Z,7.39
2023-05-13T00:24:01.300Z,7.37
2023-05-13T00:26:29.267Z,7.34
2023-05-13T00:28:57.194Z,7.32
2023-05-13T00:31:24.841Z,7.31
2023-05-13T00:33:52.589Z,7.27
2023-05-13T00:36:20.069Z,7.25
2023-05-13T00:38:47.956Z,7.22
2023-05-13T00:41:16.214Z,7.19
2023-05-13T00:43:44.207Z,7.17
2023-05-13T00:46:11.867Z,7.16
2023-05-13T00:48:39.469Z,7.14
2023-05-13T00:51:07.191Z,7.12
2023-05-13T00:53:35.270Z,7.10
2023-05-13T00:56:03.051Z,7.07
2023-05-13T00:58:31.119Z,7.04
2023-05-13T01:01:46.367Z,7.01
2023-05-13T01:04:27.236Z,6.98
2023-05-13T01:07:16.968Z,6.96
2023-05-13T01:10:03.214Z,6.96
2023-05-13T01:12:44.816Z,6.95
2023-05-13T01:15:17.157Z,6.93
2023-05-13T01:17:54.100Z,6.92
2023-05-13T01:20:23.005Z,6.90
2023-05-13T01:22:51.254Z,6.88
2023-05-13T01:25:19.372Z,6.86
2023-05-13T01:27:47.762Z,6.85
2023-05-13T01:30:16.016Z,6.84
2023-05-13T01:32:43.924Z,6.83
2023-05-13T01:35:12.502Z,6.83
2023-05-13T01:37:43.561Z,6.80
2023-05-13T01:40:24.179Z,6.79
2023-05-13T01:43:00.430Z,6.77
2023-05-13T01:45:33.020Z,6.76
2023-05-13T01:48:02.039Z,6.74
2023-05-13T01:50:38.618Z,6.72
2023-05-13T01:53:06.238Z,6.72
2023-05-13T01:55:34.169Z,6.71
2023-05-13T01:58:03.213Z,6.71
2023-05-13T02:00:31.153Z,6.70
2023-05-13T02:02:58.775Z,6.69
2023-05-13T02:05:26.678Z,6.68
2023-05-13T02:07:54.822Z,6.68
2023-05-13T02:10:23.067Z,6.68
2023-05-13T02:12:50.780Z,6.68
2023-05-13T02:15:19.199Z,6.67
2023-05-13T02:17:46.823Z,6.66
2023-05-13T02:20:14.589Z,6.65
2023-05-13T02:22:42.372Z,6.65
2023-05-13T02:25:10.030Z,6.64
2023-05-13T02:27:37.834Z,6.64
2023-05-13T02:30:06.337Z,6.64
2023-05-13T02:32:34.716Z,6.66
2023-05-13T02:35:02.287Z,6.66
2023-05-13T02:37:30.205Z,6.68
2023-05-13T02:40:00.666Z,6.68
2023-05-13T02:42:28.472Z,6.68
2023-05-13T02:44:57.067Z,6.69
2023-05-13T02:47:25.336Z,6.72
2023-05-13T02:49:55.778Z,6.76
2023-05-13T02:52:23.282Z,6.81
2023-05-13T02:54:50.775Z,6.88
2023-05-13T02:57:18.310Z,6.93
2023-05-13T02:59:46.383Z,6.99
2023-05-13T03:02:14.067Z,7.05
2023-05-13T03:04:41.595Z,7.11
2023-05-13T03:07:09.586Z,7.18
2023-05-13T03:09:39.252Z,7.26
2023-05-13T03:12:08.504Z,7.35
2023-05-13T03:14:37.072Z,7.46
2023-05-13T03:17:05.429Z,7.57
2023-05-13T03:19:38.372Z,7.70
2023-05-13T03:22:06.049Z,7.88
2023-05-13T03:24:35.019Z,8.30
2023-05-13T03:27:03.173Z,8.94
2023-05-13T03:29:30.907Z,9.71
2023-05-13T03:31:58.673Z,10.53
2023-05-13T03:34:26.758Z,11.37
2023-05-13T03:36:54.273Z,12.20
2023-05-13T03:39:21.711Z,12.99
2023-05-13T03:41:49.216Z,13.71
2023-05-13T03:44:16.841Z,14.39
2023-05-13T03:46:44.330Z,15.00
2023-05-13T03:49:11.850Z,15.49
2023-05-13T03:51:39.832Z,15.86
2023-05-13T03:54:07.786Z,16.27
2023-05-13T03:56:35.324Z,16.67
2023-05-13T03:59:02.713Z,17.19
2023-05-13T04:01:30.693Z,17.64
2023-05-13T04:03:58.374Z,18.04
2023-05-13T04:06:25.852Z,18.38
2023-05-13T04:08:53.483Z,18.67
2023-05-13T04:11:21.774Z,18.86
2023-05-13T04:13:49.178Z,19.11
2023-05-13T04:16:17.409Z,19.50
2023-05-13T04:18:44.927Z,19.88
2023-05-13T04:21:12.380Z,20.14
2023-05-13T04:23:41.829Z,20.29
2023-05-13T04:26:09.357Z,20.42
2023-05-13T04:28:37.248Z,20.63
2023-05-13T04:31:04.770Z,20.86
2023-05-13T04:33:33.781Z,21.03
2023-05-13T04:36:01.507Z,21.18
2023-05-13T04:38:30.938Z,21.26
2023-05-13T04:40:58.690Z,21.47
2023-05-13T04:43:35.529Z,21.78
2023-05-13T04:46:03.088Z,21.99
2023-05-13T04:48:30.895Z,22.22
2023-05-13T04:50:58.978Z,22.39
2023-05-13T04:53:26.979Z,22.43
2023-05-13T04:56:00.683Z,22.56
2023-05-13T04:58:30.032Z,22.87
2023-05-13T05:00:58.034Z,23.12
2023-05-13T05:03:25.687Z,23.23
2023-05-13T05:05:53.949Z,23.16
2023-05-13T05:08:22.764Z,23.04
2023-05-13T05:10:51.408Z,23.04
2023-05-13T05:13:19.768Z,23.18
2023-05-13T05:15:47.247Z,23.45
2023-05-13T05:18:15.611Z,23.67
2023-05-13T05:20:45.718Z,23.80
2023-05-13T05:23:16.569Z,23.98
2023-05-13T05:25:45.716Z,24.17
2023-05-13T05:28:13.494Z,24.33
2023-05-13T05:30:43.158Z,24.57
2023-05-13T05:33:16.670Z,24.73
2023-05-13T05:35:44.520Z,24.71
2023-05-13T05:38:15.923Z,24.71
2023-05-13T05:40:43.869Z,24.70
2023-05-13T05:43:11.906Z,24.69
2023-05-13T05:45:39.861Z,24.60
2023-05-13T05:48:09.110Z,24.63
2023-05-13T05:50:36.956Z,24.68
2023-05-13T05:53:06.904Z,24.75
2023-05-13T05:55:36.784Z,24.82
2023-05-13T05:58:06.155Z,24.94
2023-05-13T06:00:36.787Z,25.04
2023-05-13T06:03:04.353Z,25.05
2023-05-13T06:05:32.411Z,25.01
2023-05-13T06:07:59.950Z,24.80
2023-05-13T06:10:27.377Z,24.60
2023-05-13T06:12:55.211Z,24.44
2023-05-13T06:15:22.774Z,24.36
2023-05-13T06:17:50.234Z,24.36
2023-05-13T06:20:18.054Z,24.37
2023-05-13T06:22:45.617Z,24.24
2023-05-13T06:25:13.101Z,24.24
2023-05-13T06:27:41.800Z,24.24
2023-05-13T06:30:10.550Z,24.23
2023-05-13T06:32:50.269Z,24.19
2023-05-13T06:35:31.446Z,24.27
2023-05-13T06:38:00.050Z,24.32
2023-05-13T06:40:27.860Z,24.31
2023-05-13T06:42:56.237Z,24.33
2023-05-13T06:45:29.956Z,24.29
2023-05-13T06:47:57.735Z,24.32
2023-05-13T06:50:25.408Z,24.32
2023-05-13T06:52:53.012Z,24.24
2023-05-13T06:55:21.388Z,24.30
2023-05-13T06:57:49.267Z,24.51
2023-05-13T07:00:17.498Z,24.62
2023-05-13T07:02:45.417Z,24.61
2023-05-13T07:05:12.992Z,24.63
2023-05-13T07:07:40.752Z,24.60
2023-05-13T07:10:08.650Z,24.54
2023-05-13T07:12:36.634Z,24.54
2023-05-13T07:15:05.132Z,24.58
2023-05-13T07:17:33.125Z,24.45
2023-05-13T07:20:00.551Z,24.30
2023-05-13T07:22:28.328Z,24.21
2023-05-13T07:24:56.788Z,24.31
2023-05-13T07:27:24.271Z,24.36
2023-05-13T07:29:51.768Z,24.31
2023-05-13T07:32:19.311Z,24.29
2023-05-13T07:34:46.741Z,24.33
2023-05-13T07:37:14.212Z,24.29
2023-05-13T07:39:41.682Z,24.09
2023-05-13T07:42:09.837Z,23.96
2023-05-13T07:44:37.383Z,23.93
2023-05-13T07:47:04.910Z,23.85
2023-05-13T07:49:32.718Z,23.82
2023-05-13T07:52:00.991Z,23.88
2023-05-13T07:54:28.482Z,23.87
2023-05-13T07:56:56.359Z,23.95
2023-05-13T07:59:23.863Z,24.12
2023-05-13T08:01:51.669Z,24.02
2023-05-13T08:04:19.509Z,23.88
2023-05-13T08:06:47.536Z,23.73
2023-05-13T08:09:15.084Z,23.60
2023-05-13T08:11:42.695Z,23.63
2023-05-13T08:14:10.198Z,23.75
2023-05-13T08:16:38.052Z,23.80
2023-05-13T08:19:05.680Z,23.68
2023-05-13T08:21:33.773Z,23.63
2023-05-13T08:24:01.299Z,23.68
2023-05-13T08:26:29.015Z,23.64
2023-05-13T08:28:57.706Z,23.51
2023-05-13T08:31:25.284Z,23.46
2023-05-13T08:33:53.315Z,23.43
2023-05-13T08:36:22.696Z,23.22
2023-05-13T08:38:50.058Z,22.84
2023-05-13T08:41:19.919Z,22.58
2023-05-13T08:43:49.973Z,22.64
2023-05-13T08:46:17.672Z,22.75
2023-05-13T08:48:45.413Z,22.83
2023-05-13T08:51:12.930Z,22.79
2023-05-13T08:53:40.856Z,22.72
2023-05-13T08:56:08.929Z,22.77
2023-05-13T08:58:36.845Z,22.90
2023-05-13T09:01:06.041Z,22.99
2023-05-13T09:03:33.710Z,23.09
2023-05-13T09:06:01.732Z,23.15
2023-05-13T09:08:30.048Z,23.24
2023-05-13T09:10:57.486Z,23.25
2023-05-13T09:13:25.172Z,23.19
2023-05-13T09:15:52.713Z,23.13
2023-05-13T09:18:20.982Z,23.14
2023-05-13T09:20:48.673Z,23.18
2023-05-13T09:23:16.211Z,23.23
2023-05-13T09:25:44.042Z,23.26
2023-05-13T09:28:14.104Z,23.31
2023-05-13T09:30:45.488Z,23.38
2023-05-13T09:33:19.513Z,23.41
2023-05-13T09:35:54.595Z,23.41
2023-05-13T09:38:25.214Z,23.44
2023-05-13T09:40:56.793Z,23.46
2023-05-13T09:43:28.702Z,23.44
2023-05-13T09:45:57.514Z,23.45
2023-05-13T09:48:27.138Z,23.56
2023-05-13T09:50:55.866Z,23.68
2023-05-13T09:53:24.257Z,23.71
2023-05-13T09:55:54.472Z,23.74
2023-05-13T09:58:24.192Z,23.73
2023-05-13T10:00:51.896Z,23.68
2023-05-13T10:03:19.797Z,23.61
2023-05-13T10:05:47.338Z,23.55
2023-05-13T10:08:15.493Z,23.54
2023-05-13T10:10:45.615Z,23.57
2023-05-13T10:13:14.661Z,23.58
2023-05-13T10:15:52.569Z,23.51
2023-05-13T10:18:22.029Z,23.38
2023-05-13T10:20:52.884Z,23.35
2023-05-13T10:23:22.470Z,23.32
2023-05-13T10:25:50.599Z,23.28
2023-05-13T10:28:18.074Z,23.30
2023-05-13T10:30:46.633Z,23.29
2023-05-13T10:33:14.165Z,23.27
2023-05-13T10:35:43.652Z,23.27
2023-05-13T10:38:20.308Z,23.27
2023-05-13T10:41:08.065Z,23.34
2023-05-13T10:43:35.811Z,23.42
2023-05-13T10:46:12.246Z,23.38
2023-05-13T10:48:50.788Z,23.35
2023-05-13T10:51:18.470Z,23.38
2023-05-13T10:53:50.793Z,23.41
2023-05-13T10:56:22.300Z,23.45
2023-05-13T10:59:03.280Z,23.45
2023-05-13T11:01:43.738Z,23.43
2023-05-13T11:04:16.915Z,23.44
2023-05-13T11:06:46.751Z,23.49
2023-05-13T11:09:23.254Z,23.53
2023-05-13T11:11:56.037Z,23.56
2023-05-13T11:14:24.804Z,23.52
2023-05-13T11:16:54.377Z,23.52
2023-05-13T11:19:38.679Z,23.48
2023-05-13T11:22:12.956Z,23.43
2023-05-13T11:24:40.719Z,23.42
2023-05-13T11:27:17.896Z,23.43
2023-05-13T11:29:52.821Z,23.51
2023-05-13T11:32:55.999Z,23.60
2023-05-13T11:35:25.256Z,23.69
2023-05-13T11:37:53.493Z,23.77
2023-05-13T11:40:34.797Z,23.84
2023-05-13T11:43:04.739Z,23.78
2023-05-13T11:45:33.721Z,23.64
2023-05-13T11:48:18.796Z,23.51
2023-05-13T11:50:46.335Z,23.47
2023-05-13T11:53:19.396Z,23.52
2023-05-13T11:55:46.812Z,23.57
2023-05-13T11:58:15.539Z,23.51
2023-05-13T12:00:45.239Z,23.45
2023-05-13T12:03:16.197Z,23.49
2023-05-13T12:05:44.966Z,23.50
2023-05-13T12:08:13.081Z,23.40
2023-05-13T12:10:44.796Z,23.26
2023-05-13T12:13:12.757Z,23.14
2023-05-13T12:15:41.174Z,23.05
2023-05-13T12:18:08.935Z,22.99
2023-05-13T12:20:37.983Z,23.00
2023-05-13T12:23:06.392Z,23.07
2023-05-13T12:25:42.372Z,23.13
2023-05-13T12:28:16.506Z,23.13
2023-05-13T12:31:02.566Z,23.17
2023-05-13T12:33:31.977Z,23.16
2023-05-13T12:36:15.480Z,23.17
2023-05-13T12:38:58.895Z,23.18
2023-05-13T12:41:38.575Z,23.19
2023-05-13T12:44:15.554Z,23.24
2023-05-13T12:46:57.730Z,23.31
2023-05-13T12:49:26.214Z,23.31
2023-05-13T12:51:55.498Z,23.28
2023-05-13T12:54:23.194Z,23.26
2023-05-13T12:56:51.024Z,23.26
2023-05-13T12:59:19.080Z,23.21
2023-05-13T13:01:49.561Z,23.12
2023-05-13T13:04:18.792Z,23.05
2023-05-13T13:06:46.535Z,22.95
2023-05-13T13:09:14.134Z,22.80
2023-05-13T13:11:41.915Z,22.66
2023-05-13T13:14:09.605Z,22.55
2023-05-13T13:16:37.825Z,22.47
2023-05-13T13:19:05.590Z,22.40
2023-05-13T13:21:33.414Z,22.36
2023-05-13T13:24:00.992Z,22.37
2023-05-13T13:26:29.166Z,22.37
2023-05-13T13:28:56.866Z,22.39
2023-05-13T13:31:24.587Z,22.43
2023-05-13T13:33:53.720Z,22.51
2023-05-13T13:36:21.336Z,22.61
2023-05-13T13:38:49.504Z,22.69
2023-05-13T13:41:17.323Z,22.75
2023-05-13T13:43:45.087Z,22.78
2023-05-13T13:46:12.737Z,22.82
2023-05-13T13:48:40.401Z,22.86
2023-05-13T13:51:08.115Z,22.88
2023-05-13T13:53:35.668Z,22.89
2023-05-13T13:56:03.704Z,22.91
2023-05-13T13:58:31.402Z,22.94
2023-05-13T14:00:59.172Z,22.98
2023-05-13T14:03:26.953Z,23.01
2023-05-13T14:05:55.033Z,23.02
2023-05-13T14:08:23.491Z,22.98
2023-05-13T14:10:52.429Z,22.89
2023-05-13T14:13:20.709Z,22.80
2023-05-13T14:15:48.748Z,22.72
2023-05-13T14:18:16.492Z,22.63
2023-05-13T14:20:44.353Z,22.56
2023-05-13T14:23:12.240Z,22.50
2023-05-13T14:25:39.963Z,22.44
2023-05-13T14:28:07.987Z,22.36
2023-05-13T14:30:36.612Z,22.26
2023-05-13T14:33:04.483Z,22.15
2023-05-13T14:35:33.068Z,22.04
2023-05-13T14:38:01.214Z,21.91
2023-05-13T14:40:29.180Z,21.78
2023-05-13T14:42:56.998Z,21.66
2023-05-13T14:45:24.564Z,21.51
2023-05-13T14:47:53.891Z,21.37
2023-05-13T14:50:22.633Z,21.25
2023-05-13T14:52:50.615Z,21.14
2023-05-13T14:55:18.466Z,21.04
2023-05-13T14:57:46.225Z,20.96
2023-05-13T15:00:14.949Z,20.87
2023-05-13T15:02:43.296Z,20.78
2023-05-13T15:05:11.474Z,20.70
2023-05-13T15:07:40.301Z,20.61
2023-05-13T15:10:08.556Z,20.52
2023-05-13T15:12:36.880Z,20.44
2023-05-13T15:15:05.858Z,20.37
2023-05-13T15:17:33.834Z,20.31
2023-05-13T15:20:02.262Z,20.27
2023-05-13T15:22:31.506Z,20.23
2023-05-13T15:25:01.488Z,20.19
2023-05-13T15:27:29.412Z,20.17
2023-05-13T15:29:57.135Z,20.15
2023-05-13T15:32:24.939Z,20.14
2023-05-13T15:34:52.590Z,20.15
2023-05-13T15:37:20.353Z,20.15
2023-05-13T15:39:48.194Z,20.17
2023-05-13T15:42:16.437Z,20.20
2023-05-13T15:44:45.301Z,20.24
2023-05-13T15:47:12.964Z,20.27
2023-05-13T15:49:40.886Z,20.30
2023-05-13T15:52:08.705Z,20.33
2023-05-13T15:54:36.684Z,20.35
2023-05-13T15:57:04.471Z,20.38
2023-05-13T15:59:32.548Z,20.41
2023-05-13T16:02:00.509Z,20.45
2023-05-13T16:04:28.494Z,20.47
2023-05-13T16:06:56.388Z,20.49
2023-05-13T16:09:24.035Z,20.52
2023-05-13T16:11:51.858Z,20.56
2023-05-13T16:14:19.744Z,20.60
2023-05-13T16:16:47.630Z,20.61
2023-05-13T16:19:15.744Z,20.60
2023-05-13T16:21:43.708Z,20.57
2023-05-13T16:24:11.468Z,20.54
2023-05-13T16:26:39.289Z,20.51
2023-05-13T16:29:07.150Z,20.46
2023-05-13T16:31:34.941Z,20.40
2023-05-13T16:34:03.012Z,20.35
2023-05-13T16:36:30.879Z,20.30
2023-05-13T16:38:58.823Z,20.25
2023-05-13T16:41:26.560Z,20.19
2023-05-13T16:43:54.514Z,20.15
2023-05-13T16:46:22.322Z,20.09
2023-05-13T16:48:50.231Z,20.04
2023-05-13T16:51:18.507Z,19.98
2023-05-13T16:53:46.295Z,19.93
2023-05-13T16:56:13.956Z,19.86
2023-05-13T16:58:41.829Z,19.80
2023-05-13T17:01:09.582Z,19.73
2023-05-13T17:03:37.229Z,19.66
2023-05-13T17:06:07.075Z,19.56
2023-05-13T17:08:35.462Z,19.45
2023-05-13T17:11:03.104Z,19.33
2023-05-13T17:13:32.583Z,19.21
2023-05-13T17:16:01.190Z,19.08
2023-05-13T17:18:29.329Z,18.95
2023-05-13T17:20:57.382Z,18.85
2023-05-13T17:23:25.829Z,18.75
2023-05-13T17:25:53.713Z,18.64
2023-05-13T17:28:21.504Z,18.53
2023-05-13T17:30:49.277Z,18.43
2023-05-13T17:33:16.866Z,18.33
2023-05-13T17:35:45.593Z,18.25
2023-05-13T17:38:14.264Z,18.16
2023-05-13T17:40:41.988Z,18.06
2023-05-13T17:43:10.034Z,17.95
2023-05-13T17:45:38.061Z,17.83
2023-05-13T17:48:06.168Z,17.71
2023-05-13T17:50:35.434Z,17.58
2023-05-13T17:53:03.340Z,17.44
2023-05-13T17:55:31.198Z,17.29
2023-05-13T17:57:59.667Z,17.16
2023-05-13T18:00:27.494Z,17.03
2023-05-13T18:02:55.598Z,16.90
2023-05-13T18:05:23.694Z,16.76
2023-05-13T18:07:51.485Z,16.66
2023-05-13T18:10:19.528Z,16.55
2023-05-13T18:12:47.479Z,16.43
2023-05-13T18:15:15.264Z,16.31
2023-05-13T18:17:43.399Z,16.20
2023-05-13T18:20:12.390Z,16.11
2023-05-13T18:22:40.843Z,16.04
2023-05-13T18:25:09.665Z,15.97
2023-05-13T18:27:37.776Z,15.90
2023-05-13T18:30:07.172Z,15.83
2023-05-13T18:32:35.111Z,15.74
2023-05-13T18:35:03.034Z,15.65
2023-05-13T18:37:31.265Z,15.58
2023-05-13T18:39:59.047Z,15.52
2023-05-13T18:42:26.929Z,15.45
2023-05-13T18:44:54.896Z,15.39
2023-05-13T18:47:22.624Z,15.34
2023-05-13T18:49:50.864Z,15.29
2023-05-13T18:52:18.886Z,15.23
2023-05-13T18:54:46.666Z,15.17
2023-05-13T18:57:15.877Z,15.12
2023-05-13T18:59:43.536Z,15.05
2023-05-13T19:02:11.477Z,15.00
2023-05-13T19:04:39.931Z,14.96
2023-05-13T19:07:07.743Z,14.91
2023-05-13T19:09:35.829Z,14.85
2023-05-13T19:12:03.824Z,14.80
2023-05-13T19:14:31.660Z,14.75
2023-05-13T19:16:59.386Z,14.69
2023-05-13T19:19:27.161Z,14.63
2023-05-13T19:21:54.910Z,14.59
2023-05-13T19:24:22.519Z,14.54
2023-05-13T19:26:50.332Z,14.50
2023-05-13T19:29:18.552Z,14.46
2023-05-13T19:31:46.339Z,14.41
2023-05-13T19:34:14.559Z,14.36
2023-05-13T19:36:42.780Z,14.31
2023-05-13T19:39:10.538Z,14.27
2023-05-13T19:41:38.819Z,14.22
2023-05-13T19:44:07.117Z,14.18
2023-05-13T19:46:35.359Z,14.13
2023-05-13T19:49:03.424Z,14.09
2023-05-13T19:51:32.326Z,14.06
2023-05-13T19:54:00.037Z,14.02
2023-05-13T19:56:27.832Z,13.99
2023-05-13T19:58:55.500Z,13.97
2023-05-13T20:01:24.587Z,13.93
2023-05-13T20:03:52.906Z,13.90
2023-05-13T20:06:20.883Z,13.86
2023-05-13T20:08:48.238Z,13.83
2023-05-13T20:11:16.623Z,13.80
2023-05-13T20:13:44.194Z,13.78
2023-05-13T20:16:11.854Z,13.74
2023-05-13T20:18:39.588Z,13.71
2023-05-13T20:21:07.341Z,13.69
2023-05-13T20:23:35.109Z,13.66
2023-05-13T20:26:02.534Z,13.64
2023-05-13T20:28:30.375Z,13.61
2023-05-13T20:30:57.808Z,13.60
2023-05-13T20:33:25.279Z,13.59
2023-05-13T20:35:52.732Z,13.58
2023-05-13T20:38:21.449Z,13.59
2023-05-13T20:40:48.847Z,13.61
2023-05-13T20:43:16.541Z,13.63
2023-05-13T20:45:44.072Z,13.64
2023-05-13T20:48:13.279Z,13.64
2023-05-13T20:50:40.669Z,13.63
2023-05-13T20:53:08.122Z,13.62
2023-05-13T20:55:35.876Z,13.61
2023-05-13T20:58:03.320Z,13.58
2023-05-13T21:00:31.439Z,13.57
2023-05-13T21:02:59.515Z,13.57
2023-05-13T21:05:27.401Z,13.57
2023-05-13T21:07:55.345Z,13.56
2023-05-13T21:10:23.240Z,13.55
2023-05-13T21:12:51.155Z,13.53
2023-05-13T21:15:18.585Z,13.52
2023-05-13T21:17:47.061Z,13.49
2023-05-13T21:20:14.580Z,13.46
2023-05-13T21:22:42.262Z,13.43
2023-05-13T21:25:09.755Z,13.40
2023-05-13T21:27:38.044Z,13.38
2023-05-13T21:30:06.245Z,13.35
2023-05-13T21:32:34.219Z,13.32
2023-05-13T21:35:02.050Z,13.29
2023-05-13T21:37:30.005Z,13.27
2023-05-13T21:39:57.654Z,13.23
2023-05-13T21:42:26.694Z,13.20
2023-05-13T21:44:54.472Z,13.17
2023-05-13T21:47:22.240Z,13.13
2023-05-13T21:49:49.617Z,13.11
2023-05-13T21:52:17.579Z,13.08
2023-05-13T21:54:45.130Z,13.07
2023-05-13T21:57:12.525Z,13.06
2023-05-13T21:59:40.325Z,13.07
2023-05-13T22:02:07.835Z,13.09
2023-05-13T22:04:35.442Z,13.11
2023-05-13T22:07:03.047Z,13.12
2023-05-13T22:09:30.959Z,13.14
2023-05-13T22:11:58.444Z,13.15
2023-05-13T22:14:26.208Z,13.17
2023-05-13T22:17:07.738Z,13.16
2023-05-13T22:19:37.089Z,13.16
2023-05-13T22:22:05.030Z,13.15
2023-05-13T22:24:33.424Z,13.14
2023-05-13T22:27:00.982Z,13.13
2023-05-13T22:29:29.014Z,13.11
2023-05-13T22:31:59.355Z,13.11
2023-05-13T22:34:26.793Z,13.12
2023-05-13T22:36:55.995Z,13.13
2023-05-13T22:39:25.391Z,13.14
2023-05-13T22:41:54.529Z,13.17
2023-05-13T22:44:22.825Z,13.19
2023-05-13T22:46:52.640Z,13.21
2023-05-13T22:49:20.568Z,13.23
2023-05-13T22:51:48.201Z,13.24
2023-05-13T22:54:15.597Z,13.25
2023-05-13T22:56:42.964Z,13.25
2023-05-13T22:59:10.450Z,13.27
2023-05-13T23:01:37.921Z,13.28
2023-05-13T23:04:06.274Z,13.29
2023-05-13T23:06:34.431Z,13.29
2023-05-13T23:09:02.414Z,13.29
2023-05-13T23:11:30.265Z,13.29
2023-05-13T23:13:58.385Z,13.29
2023-05-13T23:16:26.314Z,13.29
2023-05-13T23:18:55.576Z,13.30
2023-05-13T23:21:23.174Z,13.30
2023-05-13T23:23:51.763Z,13.31
2023-05-13T23:26:19.302Z,13.31
2023-05-13T23:28:46.808Z,13.31
2023-05-13T23:31:14.329Z,13.30
2023-05-13T23:33:41.812Z,13.29
2023-05-13T23:36:09.609Z,13.30
2023-05-13T23:38:38.426Z,13.30
2023-05-13T23:41:05.807Z,13.32
2023-05-13T23:43:33.610Z,13.33
2023-05-13T23:46:01.126Z,13.35
2023-05-13T23:48:30.413Z,13.35
2023-05-13T23:50:57.974Z,13.36
2023-05-13T23:53:25.801Z,13.38
2023-05-13T23:55:53.253Z,13.39
2023-05-13T23:58:21.604Z,13.40
